createdAt,value
2023-03-12T00:00:00.590Z,99978.34
2023-03-12T00:02:32.374Z,99975.73
2023-03-12T00:05:01.507Z,99972.20
2023-03-12T00:07:32.184Z,99976.36
2023-03-12T00:10:02.826Z,99977.58
2023-03-12T00:12:33.684Z,99974.01
2023-03-12T00:15:04.632Z,99970.56
2023-03-12T00:17:35.359Z,99975.34
2023-03-12T00:20:14.224Z,99975.75
2023-03-12T00:22:44.838Z,99975.18
2023-03-12T00:25:17.171Z,99972.11
2023-03-12T00:27:48.133Z,99974.39
2023-03-12T00:30:19.064Z,99980.15
2023-03-12T00:32:49.838Z,99979.23
2023-03-12T00:35:20.897Z,99982.38
2023-03-12T00:37:51.474Z,99983.15
2023-03-12T00:40:22.160Z,99979.62
2023-03-12T00:42:52.927Z,99981.54
2023-03-12T00:45:23.649Z,99978.17
2023-03-12T00:47:54.243Z,99981.19
2023-03-12T00:50:32.414Z,99979.39
2023-03-12T00:53:03.084Z,99984.34
2023-03-12T00:55:33.900Z,99983.73
2023-03-12T00:58:04.611Z,99979.19
2023-03-12T01:00:35.335Z,99977.41
2023-03-12T01:03:06.448Z,99977.88
2023-03-12T01:05:35.511Z,99978.69
2023-03-12T01:08:07.178Z,99981.46
2023-03-12T01:10:41.812Z,99982.52
2023-03-12T01:13:12.458Z,99979.41
2023-03-12T01:15:43.295Z,99981.85
2023-03-12T01:18:14.155Z,99982.75
2023-03-12T01:20:44.767Z,99978.77
2023-03-12T01:23:15.717Z,99981.62
2023-03-12T01:25:46.456Z,99978.35
2023-03-12T01:28:17.148Z,99982.96
2023-03-12T01:30:47.838Z,99980.81
2023-03-12T01:33:18.525Z,99980.27
2023-03-12T01:35:49.236Z,99983.31
2023-03-12T01:38:19.956Z,99987.75
2023-03-12T01:40:50.621Z,99993.66
2023-03-12T01:43:31.370Z,99993.27
2023-03-12T01:46:17.030Z,99991.77
2023-03-12T01:48:51.563Z,99993.02
2023-03-12T01:51:25.526Z,99998.51
2023-03-12T01:53:59.948Z,100001.68
2023-03-12T01:56:34.659Z,100000.69
2023-03-12T01:59:11.670Z,99998.81
2023-03-12T02:01:43.740Z,99999.38
2023-03-12T02:04:16.231Z,100002.91
2023-03-12T02:06:50.260Z,100001.20
2023-03-12T02:09:21.944Z,100000.83
2023-03-12T02:11:52.854Z,100002.11
2023-03-12T02:14:23.843Z,100001.48
2023-03-12T02:16:53.293Z,100005.30
2023-03-12T02:19:30.553Z,100006.66
2023-03-12T02:22:01.742Z,100010.61
2023-03-12T02:24:38.528Z,100011.91
2023-03-12T02:27:11.099Z,100010.69
2023-03-12T02:29:45.818Z,100010.70
2023-03-12T02:32:21.688Z,100011.70
2023-03-12T02:34:52.411Z,100017.05
2023-03-12T02:37:23.218Z,100018.89
2023-03-12T02:40:00.337Z,100019.04
2023-03-12T02:42:31.917Z,100023.59
2023-03-12T02:45:03.618Z,100021.86
2023-03-12T02:47:34.342Z,100029.76
2023-03-12T02:50:07.292Z,100027.73
2023-03-12T02:52:38.042Z,100029.97
2023-03-12T02:55:09.966Z,100027.28
2023-03-12T02:57:40.671Z,100028.44
2023-03-12T03:00:16.031Z,100025.71
2023-03-12T03:02:46.748Z,100028.05
2023-03-12T03:05:17.602Z,100030.48
2023-03-12T03:07:48.299Z,100027.89
2023-03-12T03:10:20.625Z,100038.55
2023-03-12T03:12:51.420Z,100040.42
2023-03-12T03:15:23.582Z,100042.61
2023-03-12T03:17:54.260Z,100044.13
2023-03-12T03:20:25.468Z,100050.04
2023-03-12T03:22:56.189Z,100047.64
2023-03-12T03:25:26.999Z,100053.96
2023-03-12T03:27:57.810Z,100055.92
2023-03-12T03:30:28.843Z,100059.77
2023-03-12T03:32:59.463Z,100066.30
2023-03-12T03:35:30.188Z,100064.33
2023-03-12T03:38:00.887Z,100068.06
2023-03-12T03:40:31.901Z,100069.24
2023-03-12T03:43:01.354Z,100073.69
2023-03-12T03:45:32.060Z,100075.55
2023-03-12T03:48:02.761Z,100073.23
2023-03-12T03:50:33.394Z,100071.44
2023-03-12T03:53:04.126Z,100077.55
2023-03-12T03:55:37.505Z,100083.59
2023-03-12T03:58:08.440Z,100086.02
2023-03-12T04:00:39.167Z,100092.68
2023-03-12T04:03:09.883Z,100092.95
2023-03-12T04:05:41.019Z,100093.65
2023-03-12T04:08:13.114Z,100094.41
2023-03-12T04:10:43.699Z,100088.98
2023-03-12T04:13:14.379Z,100090.48
2023-03-12T04:15:50.085Z,100096.92
2023-03-12T04:18:21.103Z,100101.41
2023-03-12T04:20:51.831Z,100104.23
2023-03-12T04:23:22.502Z,100107.05
2023-03-12T04:25:53.096Z,100108.17
2023-03-12T04:28:23.832Z,100110.63
2023-03-12T04:30:58.218Z,100114.98
2023-03-12T04:33:29.826Z,100114.98
2023-03-12T04:36:00.760Z,100115.56
2023-03-12T04:38:31.738Z,100118.61
2023-03-12T04:41:04.706Z,100122.34
2023-03-12T04:43:35.822Z,100122.30
2023-03-12T04:46:05.115Z,100122.48
2023-03-12T04:48:36.350Z,100126.98
2023-03-12T04:51:08.749Z,100131.03
2023-03-12T04:53:39.522Z,100134.66
2023-03-12T04:56:10.412Z,100137.30
2023-03-12T04:58:41.003Z,100143.20
2023-03-12T05:01:22.734Z,100142.04
2023-03-12T05:03:54.280Z,100143.53
2023-03-12T05:06:26.629Z,100143.31
2023-03-12T05:08:57.363Z,100142.52
2023-03-12T05:11:27.955Z,100144.47
2023-03-12T05:13:58.672Z,100154.92
2023-03-12T05:16:29.304Z,100155.08
2023-03-12T05:19:00.325Z,100156.13
2023-03-12T05:21:31.139Z,100166.84
2023-03-12T05:24:01.890Z,100173.58
2023-03-12T05:26:33.848Z,100179.69
2023-03-12T05:29:05.471Z,100184.52
2023-03-12T05:31:36.161Z,100182.83
2023-03-12T05:34:07.010Z,100190.77
2023-03-12T05:36:37.757Z,100197.58
2023-03-12T05:39:08.472Z,100196.63
2023-03-12T05:41:39.421Z,100198.86
2023-03-12T05:44:13.159Z,100204.98
2023-03-12T05:46:43.999Z,100205.81
2023-03-12T05:49:14.684Z,100204.83
2023-03-12T05:51:46.225Z,100209.83
2023-03-12T05:54:17.341Z,100215.73
2023-03-12T05:56:46.405Z,100216.48
2023-03-12T05:59:17.046Z,100221.21
2023-03-12T06:01:47.727Z,100223.02
2023-03-12T06:04:18.514Z,100222.63
2023-03-12T06:06:49.452Z,100226.45
2023-03-12T06:09:20.161Z,100231.83
2023-03-12T06:11:50.867Z,100231.92
2023-03-12T06:14:21.548Z,100235.58
2023-03-12T06:16:52.344Z,100237.36
2023-03-12T06:19:23.198Z,100241.29
2023-03-12T06:21:53.870Z,100246.03
2023-03-12T06:24:25.722Z,100248.46
2023-03-12T06:26:56.466Z,100250.54
2023-03-12T06:29:27.386Z,100258.13
2023-03-12T06:31:58.278Z,100259.90
2023-03-12T06:34:29.321Z,100267.30
2023-03-12T06:37:00.620Z,100269.04
2023-03-12T06:39:31.400Z,100270.02
2023-03-12T06:42:02.304Z,100270.36
2023-03-12T06:44:33.829Z,100273.79
2023-03-12T06:47:02.916Z,100271.48
2023-03-12T06:49:33.686Z,100281.60
2023-03-12T06:52:04.768Z,100279.15
2023-03-12T06:54:33.887Z,100279.90
2023-03-12T06:57:05.213Z,100287.37
2023-03-12T06:59:34.537Z,100290.45
2023-03-12T07:02:05.577Z,100294.48
2023-03-12T07:04:36.706Z,100295.20
2023-03-12T07:07:09.172Z,100296.41
2023-03-12T07:09:40.076Z,100300.77
2023-03-12T07:12:11.465Z,100304.92
2023-03-12T07:14:42.284Z,100307.77
2023-03-12T07:17:11.674Z,100307.21
2023-03-12T07:19:43.485Z,100313.06
2023-03-12T07:22:14.474Z,100314.44
2023-03-12T07:24:45.770Z,100316.69
2023-03-12T07:27:16.784Z,100323.09
2023-03-12T07:29:47.876Z,100323.15
2023-03-12T07:32:17.342Z,100324.05
2023-03-12T07:34:48.260Z,100326.18
2023-03-12T07:37:19.251Z,100326.39
2023-03-12T07:39:50.127Z,100331.03
2023-03-12T07:42:21.171Z,100333.20
2023-03-12T07:44:52.119Z,100329.16
2023-03-12T07:47:24.537Z,100331.65
2023-03-12T07:49:55.785Z,100331.77
2023-03-12T07:52:27.746Z,100330.28
2023-03-12T07:54:58.893Z,100336.77
2023-03-12T07:57:29.833Z,100331.38
2023-03-12T07:59:59.355Z,100334.49
2023-03-12T08:02:30.278Z,100327.05
2023-03-12T08:05:01.593Z,100326.30
2023-03-12T08:07:33.405Z,100325.27
2023-03-12T08:10:16.896Z,100328.11
2023-03-12T08:12:48.106Z,100325.70
2023-03-12T08:15:18.988Z,100326.07
2023-03-12T08:17:49.761Z,100328.58
2023-03-12T08:20:20.975Z,100329.62
2023-03-12T08:22:51.931Z,100330.94
2023-03-12T08:25:22.998Z,100331.63
2023-03-12T08:27:54.210Z,100333.09
2023-03-12T08:30:26.427Z,100331.04
2023-03-12T08:32:58.310Z,100336.30
2023-03-12T08:35:37.826Z,100334.36
2023-03-12T08:38:09.255Z,100338.01
2023-03-12T08:40:38.945Z,100337.05
2023-03-12T08:43:10.172Z,100339.77
2023-03-12T08:45:41.442Z,100343.05
2023-03-12T08:48:10.927Z,100343.13
2023-03-12T08:50:42.521Z,100347.05
2023-03-12T08:53:13.491Z,100349.85
2023-03-12T08:55:44.358Z,100347.88
2023-03-12T08:58:13.807Z,100354.16
2023-03-12T09:00:44.590Z,100358.78
2023-03-12T09:03:15.353Z,100358.48
2023-03-12T09:05:46.335Z,100362.02
2023-03-12T09:08:18.115Z,100362.73
2023-03-12T09:10:51.078Z,100361.40
2023-03-12T09:13:22.130Z,100362.90
2023-03-12T09:15:53.141Z,100363.33
2023-03-12T09:18:24.132Z,100364.54
2023-03-12T09:20:55.348Z,100367.84
2023-03-12T09:23:27.000Z,100370.08
2023-03-12T09:25:58.055Z,100367.21
2023-03-12T09:28:27.414Z,100365.83
2023-03-12T09:31:02.898Z,100368.81
2023-03-12T09:33:34.608Z,100367.16
2023-03-12T09:36:07.645Z,100375.67
2023-03-12T09:38:38.505Z,100372.27
2023-03-12T09:41:19.359Z,100375.10
2023-03-12T09:43:56.909Z,100370.60
2023-03-12T09:46:35.619Z,100367.13
2023-03-12T09:49:14.690Z,100371.97
2023-03-12T09:51:48.554Z,100377.98
2023-03-12T09:54:28.152Z,100372.39
2023-03-12T09:57:03.519Z,100371.96
2023-03-12T09:59:34.478Z,100368.46
2023-03-12T10:02:20.108Z,100368.08
2023-03-12T10:05:00.048Z,100370.73
2023-03-12T10:07:35.839Z,100376.00
2023-03-12T10:10:28.009Z,100383.25
2023-03-12T10:13:14.904Z,100377.49
2023-03-12T10:15:54.524Z,100376.90
2023-03-12T10:18:37.457Z,100379.69
2023-03-12T10:21:14.857Z,100377.25
2023-03-12T10:23:57.808Z,100372.94
2023-03-12T10:26:33.934Z,100373.15
2023-03-12T10:29:11.842Z,100369.82
2023-03-12T10:31:51.923Z,100367.20
2023-03-12T10:34:30.742Z,100371.39
2023-03-12T10:37:11.532Z,100371.23
2023-03-12T10:39:42.593Z,100365.82
2023-03-12T10:42:18.005Z,100363.13
2023-03-12T10:44:54.462Z,100358.23
2023-03-12T10:47:33.852Z,100360.77
2023-03-12T10:50:18.992Z,100367.17
2023-03-12T10:52:51.881Z,100364.23
2023-03-12T10:55:25.156Z,100361.79
2023-03-12T10:57:56.395Z,100355.35
2023-03-12T11:00:29.886Z,100364.59
2023-03-12T11:03:03.415Z,100363.72
2023-03-12T11:05:36.598Z,100357.95
2023-03-12T11:08:21.833Z,100362.05
2023-03-12T11:10:53.762Z,100365.61
2023-03-12T11:13:27.232Z,100371.84
2023-03-12T11:15:59.937Z,100367.11
2023-03-12T11:18:36.543Z,100363.08
2023-03-12T11:21:23.760Z,100364.08
2023-03-12T11:24:10.753Z,100363.14
2023-03-12T11:26:47.998Z,100361.02
2023-03-12T11:29:26.697Z,100361.21
2023-03-12T11:32:06.393Z,100361.91
2023-03-12T11:34:39.761Z,100357.55
2023-03-12T11:37:15.899Z,100356.58
2023-03-12T11:39:58.513Z,100355.29
2023-03-12T11:42:46.469Z,100350.27
2023-03-12T11:45:27.566Z,100343.02
2023-03-12T11:48:18.138Z,100341.30
2023-03-12T11:51:02.630Z,100343.17
2023-03-12T11:53:52.690Z,100337.59
2023-03-12T11:56:29.715Z,100332.54
2023-03-12T11:59:18.840Z,100328.44
2023-03-12T12:02:04.776Z,100321.18
2023-03-12T12:05:06.058Z,100317.29
2023-03-12T12:07:50.905Z,100310.48
2023-03-12T12:10:35.754Z,100314.38
2023-03-12T12:13:15.917Z,100312.23
2023-03-12T12:15:57.176Z,100311.27
2023-03-12T12:18:45.216Z,100310.67
2023-03-12T12:21:29.226Z,100312.00
2023-03-12T12:24:12.360Z,100315.77
2023-03-12T12:26:49.523Z,100317.17
2023-03-12T12:29:36.975Z,100311.68
2023-03-12T12:32:16.716Z,100312.12
2023-03-12T12:35:03.805Z,100306.95
2023-03-12T12:37:45.400Z,100304.38
2023-03-12T12:40:25.210Z,100302.88
2023-03-12T12:43:03.831Z,100298.09
2023-03-12T12:45:38.740Z,100302.16
2023-03-12T12:48:16.976Z,100305.13
2023-03-12T12:50:50.981Z,100300.04
2023-03-12T12:53:25.773Z,100294.23
2023-03-12T12:56:07.611Z,100295.84
2023-03-12T12:59:02.295Z,100297.46
2023-03-12T13:01:34.886Z,100297.66
2023-03-12T13:04:11.323Z,100288.48
2023-03-12T13:07:01.016Z,100301.21
2023-03-12T13:09:41.240Z,100298.64
2023-03-12T13:12:19.846Z,100293.30
2023-03-12T13:14:51.654Z,100294.65
2023-03-12T13:17:33.726Z,100291.35
2023-03-12T13:20:18.080Z,100292.98
2023-03-12T13:23:03.548Z,100286.92
2023-03-12T13:25:49.050Z,100286.52
2023-03-12T13:29:11.506Z,100289.22
2023-03-12T13:31:44.877Z,100287.58
2023-03-12T13:34:41.726Z,100278.92
2023-03-12T13:37:28.005Z,100281.83
2023-03-12T13:40:01.228Z,100285.79
2023-03-12T13:42:41.040Z,100283.16
2023-03-12T13:45:27.146Z,100285.66
2023-03-12T13:48:02.061Z,100280.61
2023-03-12T13:50:42.406Z,100272.94
2023-03-12T13:53:22.309Z,100270.19
2023-03-12T13:56:04.201Z,100269.66
2023-03-12T13:58:44.433Z,100267.70
2023-03-12T14:01:19.691Z,100271.11
2023-03-12T14:03:53.782Z,100268.52
2023-03-12T14:06:27.174Z,100268.95
2023-03-12T14:09:12.802Z,100266.43
2023-03-12T14:11:56.340Z,100267.11
2023-03-12T14:14:52.772Z,100263.41
2023-03-12T14:17:26.543Z,100259.11
2023-03-12T14:20:02.698Z,100265.07
2023-03-12T14:22:35.135Z,100267.17
2023-03-12T14:25:13.339Z,100262.53
2023-03-12T14:27:47.193Z,100257.64
2023-03-12T14:30:32.525Z,100254.17
2023-03-12T14:33:04.787Z,100258.29
2023-03-12T14:35:42.024Z,100251.90
2023-03-12T14:38:19.781Z,100253.16
2023-03-12T14:40:56.120Z,100255.86
2023-03-12T14:43:29.183Z,100256.09
2023-03-12T14:46:02.064Z,100253.27
2023-03-12T14:48:36.039Z,100242.61
2023-03-12T14:51:08.093Z,100239.50
2023-03-12T14:53:39.371Z,100232.15
2023-03-12T14:56:15.055Z,100231.10
2023-03-12T14:58:47.554Z,100214.77
2023-03-12T15:01:21.352Z,100207.31
2023-03-12T15:03:55.723Z,100211.10
2023-03-12T15:06:30.710Z,100210.84
2023-03-12T15:09:04.377Z,100211.85
2023-03-12T15:11:37.159Z,100209.28
2023-03-12T15:14:13.814Z,100212.79
2023-03-12T15:16:45.044Z,100206.92
2023-03-12T15:19:19.409Z,100210.20
2023-03-12T15:21:50.666Z,100212.55
2023-03-12T15:24:21.538Z,100212.17
2023-03-12T15:26:52.264Z,100208.59
2023-03-12T15:29:28.255Z,100208.33
2023-03-12T15:32:00.798Z,100208.02
2023-03-12T15:34:34.937Z,100201.70
2023-03-12T15:37:22.738Z,100201.01
2023-03-12T15:39:55.054Z,100200.29
2023-03-12T15:42:28.125Z,100193.23
2023-03-12T15:45:01.260Z,100184.68
2023-03-12T15:47:40.132Z,100192.39
2023-03-12T15:50:19.200Z,100190.67
2023-03-12T15:53:03.255Z,100188.41
2023-03-12T15:55:35.431Z,100186.67
2023-03-12T15:58:26.883Z,100181.09
2023-03-12T16:01:08.848Z,100174.78
2023-03-12T16:03:40.662Z,100172.86
2023-03-12T16:06:15.376Z,100171.30
2023-03-12T16:08:49.253Z,100170.54
2023-03-12T16:11:22.755Z,100161.84
2023-03-12T16:13:58.657Z,100161.70
2023-03-12T16:16:29.414Z,100160.07
2023-03-12T16:19:00.214Z,100163.78
2023-03-12T16:21:30.867Z,100166.09
2023-03-12T16:24:01.558Z,100157.08
2023-03-12T16:26:34.574Z,100150.66
2023-03-12T16:29:05.773Z,100148.14
2023-03-12T16:31:34.828Z,100150.05
2023-03-12T16:34:05.483Z,100156.63
2023-03-12T16:36:36.235Z,100160.95
2023-03-12T16:39:06.923Z,100160.82
2023-03-12T16:41:38.009Z,100159.61
2023-03-12T16:44:14.228Z,100157.84
2023-03-12T16:46:46.086Z,100158.43
2023-03-12T16:49:17.675Z,100158.52
2023-03-12T16:51:48.787Z,100156.65
2023-03-12T16:54:17.956Z,100152.77
2023-03-12T16:56:49.639Z,100142.55
2023-03-12T16:59:26.944Z,100142.67
2023-03-12T17:01:57.672Z,100145.20
2023-03-12T17:04:28.352Z,100141.73
2023-03-12T17:06:59.110Z,100136.95
2023-03-12T17:09:30.376Z,100121.32
2023-03-12T17:12:01.618Z,100111.79
2023-03-12T17:14:31.268Z,100115.33
2023-03-12T17:17:01.929Z,100121.80
2023-03-12T17:19:32.602Z,100121.91
2023-03-12T17:22:03.597Z,100116.73
2023-03-12T17:24:32.870Z,100110.04
2023-03-12T17:27:03.654Z,100110.35
2023-03-12T17:29:34.337Z,100110.13
2023-03-12T17:32:05.011Z,100110.77
2023-03-12T17:34:35.716Z,100110.25
2023-03-12T17:37:06.528Z,100110.77
2023-03-12T17:39:37.256Z,100114.73
2023-03-12T17:42:08.155Z,100117.30
2023-03-12T17:44:39.001Z,100125.45
2023-03-12T17:47:09.715Z,100121.58
2023-03-12T17:49:41.251Z,100141.39
2023-03-12T17:52:12.127Z,100146.27
2023-03-12T17:54:42.855Z,100150.35
2023-03-12T17:57:13.552Z,100140.11
2023-03-12T17:59:44.417Z,100132.13
2023-03-12T18:02:15.508Z,100128.46
2023-03-12T18:04:46.721Z,100131.11
2023-03-12T18:07:17.491Z,100126.05
2023-03-12T18:09:48.193Z,100115.50
2023-03-12T18:12:19.038Z,100114.36
2023-03-12T18:14:49.657Z,100113.04
2023-03-12T18:17:20.683Z,100108.38
2023-03-12T18:19:51.354Z,100104.44
2023-03-12T18:22:22.640Z,100100.11
2023-03-12T18:24:53.280Z,100096.29
2023-03-12T18:27:24.056Z,100096.66
2023-03-12T18:29:54.990Z,100099.29
2023-03-12T18:32:25.792Z,100099.73
2023-03-12T18:34:56.492Z,100100.35
2023-03-12T18:37:27.183Z,100100.14
2023-03-12T18:39:57.903Z,100096.30
2023-03-12T18:42:28.735Z,100097.48
2023-03-12T18:44:58.449Z,100091.85
2023-03-12T18:47:29.412Z,100089.12
2023-03-12T18:50:00.207Z,100094.70
2023-03-12T18:52:31.073Z,100096.86
2023-03-12T18:55:01.807Z,100088.27
2023-03-12T18:57:32.780Z,100082.20
2023-03-12T19:00:03.911Z,100074.26
2023-03-12T19:02:35.216Z,100071.14
2023-03-12T19:05:06.990Z,100067.38
2023-03-12T19:07:39.089Z,100073.46
2023-03-12T19:10:13.153Z,100065.91
2023-03-12T19:12:52.892Z,100066.05
2023-03-12T19:15:25.176Z,100065.33
2023-03-12T19:17:56.055Z,100054.76
2023-03-12T19:20:26.889Z,100052.66
2023-03-12T19:22:57.773Z,100050.81
2023-03-12T19:25:28.793Z,100050.16
2023-03-12T19:27:59.511Z,100058.70
2023-03-12T19:30:30.098Z,100061.48
2023-03-12T19:33:00.974Z,100061.70
2023-03-12T19:35:31.916Z,100055.31
2023-03-12T19:38:02.730Z,100055.25
2023-03-12T19:40:35.435Z,100058.52
2023-03-12T19:43:06.288Z,100058.58
2023-03-12T19:45:37.513Z,100059.23
2023-03-12T19:48:08.795Z,100057.29
2023-03-12T19:50:37.985Z,100050.55
2023-03-12T19:53:08.866Z,100045.42
2023-03-12T19:55:39.739Z,100039.45
2023-03-12T19:58:10.473Z,100032.67
2023-03-12T20:00:41.219Z,100034.38
2023-03-12T20:03:12.356Z,100028.43
2023-03-12T20:05:45.534Z,100025.63
2023-03-12T20:08:16.689Z,100029.71
2023-03-12T20:10:47.450Z,100035.27
2023-03-12T20:13:18.200Z,100035.27
2023-03-12T20:15:49.009Z,100032.21
2023-03-12T20:18:20.230Z,100031.85
2023-03-12T20:20:49.276Z,100040.69
2023-03-12T20:23:20.367Z,100039.14
2023-03-12T20:25:51.824Z,100037.05
2023-03-12T20:28:22.593Z,100027.33
2023-03-12T20:30:53.387Z,100021.95
2023-03-12T20:33:24.325Z,100020.20
2023-03-12T20:35:54.970Z,100018.02
2023-03-12T20:38:26.219Z,100017.71
2023-03-12T20:40:56.932Z,100017.59
2023-03-12T20:43:27.836Z,100016.12
2023-03-12T20:45:58.593Z,100018.67
2023-03-12T20:48:29.692Z,100019.27
2023-03-12T20:51:00.288Z,100017.85
2023-03-12T20:53:31.402Z,100021.27
2023-03-12T20:56:02.043Z,100024.65
2023-03-12T20:58:32.759Z,100022.04
2023-03-12T21:01:04.643Z,100015.75
2023-03-12T21:03:35.400Z,100010.61
2023-03-12T21:06:06.576Z,100011.23
2023-03-12T21:08:37.275Z,100009.31
2023-03-12T21:11:08.774Z,100006.80
2023-03-12T21:13:39.464Z,100003.38
2023-03-12T21:16:12.138Z,100000.93
2023-03-12T21:18:42.854Z,99999.19
2023-03-12T21:21:13.851Z,99998.52
2023-03-12T21:23:44.718Z,99997.90
2023-03-12T21:26:15.461Z,99994.67
2023-03-12T21:28:46.190Z,99989.14
2023-03-12T21:31:18.218Z,99992.10
2023-03-12T21:33:48.953Z,99985.40
2023-03-12T21:36:19.570Z,99982.85
2023-03-12T21:38:50.393Z,99982.71
2023-03-12T21:41:21.679Z,99980.17
2023-03-12T21:43:52.428Z,99976.57
2023-03-12T21:46:23.196Z,99975.33
2023-03-12T21:48:54.042Z,99972.26
2023-03-12T21:51:24.814Z,99973.23
2023-03-12T21:53:56.770Z,99967.33
2023-03-12T21:56:27.440Z,99969.15
2023-03-12T21:58:58.631Z,99959.42
2023-03-12T22:01:27.899Z,99957.52
2023-03-12T22:04:00.047Z,99955.35
2023-03-12T22:06:31.058Z,99947.73
2023-03-12T22:09:02.168Z,99943.56
2023-03-12T22:11:31.245Z,99944.02
2023-03-12T22:14:02.349Z,99937.95
2023-03-12T22:16:31.535Z,99937.02
2023-03-12T22:19:02.256Z,99941.55
2023-03-12T22:21:33.018Z,99941.27
2023-03-12T22:24:04.007Z,99939.30
2023-03-12T22:26:34.709Z,99937.48
2023-03-12T22:29:05.377Z,99929.17
2023-03-12T22:31:36.167Z,99924.23
2023-03-12T22:34:06.833Z,99919.89
2023-03-12T22:36:39.787Z,99918.85
2023-03-12T22:39:10.413Z,99922.17
2023-03-12T22:41:41.009Z,99914.36
2023-03-12T22:44:12.674Z,99907.48
2023-03-12T22:46:43.355Z,99909.64
2023-03-12T22:49:15.126Z,99911.25
2023-03-12T22:51:45.778Z,99908.34
2023-03-12T22:54:16.503Z,99907.32
2023-03-12T22:56:47.100Z,99903.60
2023-03-12T22:59:17.751Z,99906.89
2023-03-12T23:01:48.487Z,99909.76
2023-03-12T23:04:19.362Z,99906.95
2023-03-12T23:06:50.082Z,99904.52
2023-03-12T23:09:20.799Z,99906.29
2023-03-12T23:11:51.450Z,99904.54
2023-03-12T23:14:22.148Z,99899.61
2023-03-12T23:16:52.863Z,99890.13
2023-03-12T23:19:23.606Z,99890.85
2023-03-12T23:21:54.366Z,99900.16
2023-03-12T23:24:25.122Z,99897.98
2023-03-12T23:26:55.776Z,99891.42
2023-03-12T23:29:26.796Z,99882.64
2023-03-12T23:31:57.513Z,99877.75
2023-03-12T23:34:28.753Z,99880.41
2023-03-12T23:36:59.620Z,99875.90
2023-03-12T23:39:32.775Z,99871.02
2023-03-12T23:42:06.406Z,99869.64
2023-03-12T23:44:37.041Z,99870.24
2023-03-12T23:47:08.389Z,99868.13
2023-03-12T23:49:39.569Z,99866.48
2023-03-12T23:52:08.645Z,99865.95
2023-03-12T23:54:39.246Z,99866.52
2023-03-12T23:57:09.927Z,99866.89
2023-03-12T23:59:40.572Z,99874.39
